sensor_id;sensor_type;location;lat;lon;timestamp;P1;durP1;ratioP1;P2;durP2;ratioP2
7571;SDS011;3827;49.928;8.548;2022-10-22T00:01:36;2.67;;;2.20;;
7571;SDS011;3827;49.928;8.548;2022-10-22T00:04:04;3.97;;;2.42;;
7571;SDS011;3827;49.928;8.548;2022-10-22T00:06:31;2.90;;;2.20;;
7571;SDS011;3827;49.928;8.548;2022-10-22T00:08:59;2.55;;;2.20;;
7571;SDS011;3827;49.928;8.548;2022-10-22T00:11:26;5.25;;;2.60;;
7571;SDS011;3827;49.928;8.548;2022-10-22T00:13:52;5.22;;;2.40;;
7571;SDS011;3827;49.928;8.548;2022-10-22T00:16:19;5.43;;;2.55;;
7571;SDS011;3827;49.928;8.548;2022-10-22T00:18:46;5.63;;;2.60;;
7571;SDS011;3827;49.928;8.548;2022-10-22T00:21:13;4.85;;;2.78;;
7571;SDS011;3827;49.928;8.548;2022-10-22T00:23:40;4.38;;;2.72;;
7571;SDS011;3827;49.928;8.548;2022-10-22T00:26:09;4.38;;;2.63;;
7571;SDS011;3827;49.928;8.548;2022-10-22T00:28:36;4.78;;;2.40;;
7571;SDS011;3827;49.928;8.548;2022-10-22T00:31:04;4.20;;;2.45;;
7571;SDS011;3827;49.928;8.548;2022-10-22T00:33:31;5.68;;;2.80;;
7571;SDS011;3827;49.928;8.548;2022-10-22T00:35:58;4.15;;;2.45;;
7571;SDS011;3827;49.928;8.548;2022-10-22T00:38:25;3.95;;;2.58;;
7571;SDS011;3827;49.928;8.548;2022-10-22T00:40:52;5.85;;;2.83;;
7571;SDS011;3827;49.928;8.548;2022-10-22T00:43:20;3.50;;;2.57;;
7571;SDS011;3827;49.928;8.548;2022-10-22T00:45:47;5.00;;;2.80;;
7571;SDS011;3827;49.928;8.548;2022-10-22T00:48:14;3.67;;;2.50;;
7571;SDS011;3827;49.928;8.548;2022-10-22T00:50:45;3.58;;;2.55;;
7571;SDS011;3827;49.928;8.548;2022-10-22T00:53:15;3.10;;;2.55;;
7571;SDS011;3827;49.928;8.548;2022-10-22T00:55:45;5.30;;;2.57;;
7571;SDS011;3827;49.928;8.548;2022-10-22T00:58:14;6.30;;;2.80;;
7571;SDS011;3827;49.928;8.548;2022-10-22T01:00:42;4.03;;;2.58;;
7571;SDS011;3827;49.928;8.548;2022-10-22T01:03:10;4.30;;;2.50;;
7571;SDS011;3827;49.928;8.548;2022-10-22T01:05:39;4.00;;;2.80;;
7571;SDS011;3827;49.928;8.548;2022-10-22T01:08:10;4.05;;;2.33;;
7571;SDS011;3827;49.928;8.548;2022-10-22T01:10:49;4.35;;;2.30;;
7571;SDS011;3827;49.928;8.548;2022-10-22T01:13:24;4.60;;;2.40;;
7571;SDS011;3827;49.928;8.548;2022-10-22T01:16:00;4.55;;;2.60;;
7571;SDS011;3827;49.928;8.548;2022-10-22T01:18:33;3.15;;;2.00;;
7571;SDS011;3827;49.928;8.548;2022-10-22T01:21:08;4.70;;;2.50;;
7571;SDS011;3827;49.928;8.548;2022-10-22T01:26:53;3.20;;;2.30;;
7571;SDS011;3827;49.928;8.548;2022-10-22T01:29:40;4.72;;;2.42;;
7571;SDS011;3827;49.928;8.548;2022-10-22T01:32:14;4.47;;;2.40;;
7571;SDS011;3827;49.928;8.548;2022-10-22T01:34:43;3.42;;;2.00;;
7571;SDS011;3827;49.928;8.548;2022-10-22T01:37:13;3.42;;;2.42;;
7571;SDS011;3827;49.928;8.548;2022-10-22T01:39:42;2.38;;;1.77;;
7571;SDS011;3827;49.928;8.548;2022-10-22T01:42:12;2.05;;;1.67;;
7571;SDS011;3827;49.928;8.548;2022-10-22T01:44:40;2.72;;;1.60;;
7571;SDS011;3827;49.928;8.548;2022-10-22T01:47:13;3.25;;;1.67;;
7571;SDS011;3827;49.928;8.548;2022-10-22T01:50:02;2.30;;;1.38;;
7571;SDS011;3827;49.928;8.548;2022-10-22T01:52:54;3.10;;;1.60;;
7571;SDS011;3827;49.928;8.548;2022-10-22T01:55:32;3.75;;;1.70;;
7571;SDS011;3827;49.928;8.548;2022-10-22T01:58:08;2.85;;;1.65;;
7571;SDS011;3827;49.928;8.548;2022-10-22T02:00:48;2.92;;;1.70;;
7571;SDS011;3827;49.928;8.548;2022-10-22T02:03:23;3.05;;;1.50;;
7571;SDS011;3827;49.928;8.548;2022-10-22T02:05:52;2.72;;;1.48;;
7571;SDS011;3827;49.928;8.548;2022-10-22T02:08:22;3.00;;;1.50;;
7571;SDS011;3827;49.928;8.548;2022-10-22T02:10:52;2.47;;;1.67;;
7571;SDS011;3827;49.928;8.548;2022-10-22T02:13:20;2.38;;;1.50;;
7571;SDS011;3827;49.928;8.548;2022-10-22T02:15:52;3.53;;;1.50;;
7571;SDS011;3827;49.928;8.548;2022-10-22T02:18:21;2.95;;;1.50;;
7571;SDS011;3827;49.928;8.548;2022-10-22T02:20:52;1.67;;;1.20;;
7571;SDS011;3827;49.928;8.548;2022-10-22T02:23:20;1.45;;;1.15;;
7571;SDS011;3827;49.928;8.548;2022-10-22T02:25:48;2.60;;;1.30;;
7571;SDS011;3827;49.928;8.548;2022-10-22T02:28:22;2.80;;;1.30;;
7571;SDS011;3827;49.928;8.548;2022-10-22T02:30:56;1.63;;;1.10;;
7571;SDS011;3827;49.928;8.548;2022-10-22T02:33:27;3.67;;;1.35;;
7571;SDS011;3827;49.928;8.548;2022-10-22T02:35:55;1.65;;;1.20;;
7571;SDS011;3827;49.928;8.548;2022-10-22T02:38:24;1.58;;;1.10;;
7571;SDS011;3827;49.928;8.548;2022-10-22T02:40:52;2.50;;;1.20;;
7571;SDS011;3827;49.928;8.548;2022-10-22T02:43:19;2.17;;;1.10;;
7571;SDS011;3827;49.928;8.548;2022-10-22T02:45:48;1.35;;;1.20;;
7571;SDS011;3827;49.928;8.548;2022-10-22T02:48:17;1.30;;;1.17;;
7571;SDS011;3827;49.928;8.548;2022-10-22T02:50:43;2.03;;;1.20;;
7571;SDS011;3827;49.928;8.548;2022-10-22T02:53:10;3.00;;;1.30;;
7571;SDS011;3827;49.928;8.548;2022-10-22T02:55:37;1.50;;;1.20;;
7571;SDS011;3827;49.928;8.548;2022-10-22T02:58:04;2.43;;;1.57;;
7571;SDS011;3827;49.928;8.548;2022-10-22T03:00:30;1.88;;;1.30;;
7571;SDS011;3827;49.928;8.548;2022-10-22T03:02:57;2.40;;;1.20;;
7571;SDS011;3827;49.928;8.548;2022-10-22T03:05:25;1.25;;;1.15;;
7571;SDS011;3827;49.928;8.548;2022-10-22T03:07:52;1.55;;;1.10;;
7571;SDS011;3827;49.928;8.548;2022-10-22T03:10:19;3.22;;;1.23;;
7571;SDS011;3827;49.928;8.548;2022-10-22T03:12:45;1.55;;;1.17;;
7571;SDS011;3827;49.928;8.548;2022-10-22T03:15:12;1.52;;;1.17;;
7571;SDS011;3827;49.928;8.548;2022-10-22T03:17:39;1.50;;;1.30;;
7571;SDS011;3827;49.928;8.548;2022-10-22T03:20:06;2.83;;;1.50;;
7571;SDS011;3827;49.928;8.548;2022-10-22T03:22:35;1.92;;;1.67;;
7571;SDS011;3827;49.928;8.548;2022-10-22T03:25:05;2.97;;;1.80;;
7571;SDS011;3827;49.928;8.548;2022-10-22T03:27:36;1.85;;;1.20;;
7571;SDS011;3827;49.928;8.548;2022-10-22T03:30:04;2.55;;;1.35;;
7571;SDS011;3827;49.928;8.548;2022-10-22T03:32:32;2.67;;;1.33;;
7571;SDS011;3827;49.928;8.548;2022-10-22T03:34:59;2.22;;;1.20;;
7571;SDS011;3827;49.928;8.548;2022-10-22T03:37:26;1.48;;;1.05;;
7571;SDS011;3827;49.928;8.548;2022-10-22T03:39:55;2.00;;;1.20;;
7571;SDS011;3827;49.928;8.548;2022-10-22T03:42:22;1.48;;;1.00;;
7571;SDS011;3827;49.928;8.548;2022-10-22T03:44:49;2.03;;;1.13;;
7571;SDS011;3827;49.928;8.548;2022-10-22T03:47:16;2.53;;;1.00;;
7571;SDS011;3827;49.928;8.548;2022-10-22T03:49:43;1.65;;;0.88;;
7571;SDS011;3827;49.928;8.548;2022-10-22T03:52:10;1.17;;;1.05;;
7571;SDS011;3827;49.928;8.548;2022-10-22T03:54:39;1.90;;;1.00;;
7571;SDS011;3827;49.928;8.548;2022-10-22T03:57:08;1.70;;;1.10;;
7571;SDS011;3827;49.928;8.548;2022-10-22T03:59:35;3.33;;;1.10;;
7571;SDS011;3827;49.928;8.548;2022-10-22T04:02:03;2.65;;;1.17;;
7571;SDS011;3827;49.928;8.548;2022-10-22T04:04:30;1.77;;;1.10;;
7571;SDS011;3827;49.928;8.548;2022-10-22T04:06:57;2.63;;;1.20;;
7571;SDS011;3827;49.928;8.548;2022-10-22T04:09:23;2.33;;;1.00;;
7571;SDS011;3827;49.928;8.548;2022-10-22T04:11:50;2.13;;;1.08;;
7571;SDS011;3827;49.928;8.548;2022-10-22T04:14:18;1.98;;;1.70;;
7571;SDS011;3827;49.928;8.548;2022-10-22T04:16:45;1.55;;;1.45;;
7571;SDS011;3827;49.928;8.548;2022-10-22T04:19:12;1.98;;;1.42;;
7571;SDS011;3827;49.928;8.548;2022-10-22T04:21:39;1.33;;;1.23;;
7571;SDS011;3827;49.928;8.548;2022-10-22T04:24:06;1.80;;;1.42;;
7571;SDS011;3827;49.928;8.548;2022-10-22T04:26:33;2.15;;;1.30;;
7571;SDS011;3827;49.928;8.548;2022-10-22T04:29:00;1.53;;;1.03;;
7571;SDS011;3827;49.928;8.548;2022-10-22T04:31:28;2.00;;;1.40;;
7571;SDS011;3827;49.928;8.548;2022-10-22T04:33:56;1.60;;;1.50;;
7571;SDS011;3827;49.928;8.548;2022-10-22T04:36:24;1.90;;;1.02;;
7571;SDS011;3827;49.928;8.548;2022-10-22T04:38:52;3.00;;;1.35;;
7571;SDS011;3827;49.928;8.548;2022-10-22T04:41:21;1.70;;;1.17;;
7571;SDS011;3827;49.928;8.548;2022-10-22T04:43:49;1.80;;;1.20;;
7571;SDS011;3827;49.928;8.548;2022-10-22T04:46:16;1.50;;;1.10;;
7571;SDS011;3827;49.928;8.548;2022-10-22T04:48:44;1.75;;;1.10;;
7571;SDS011;3827;49.928;8.548;2022-10-22T04:51:12;2.90;;;1.30;;
7571;SDS011;3827;49.928;8.548;2022-10-22T04:53:41;1.80;;;1.20;;
7571;SDS011;3827;49.928;8.548;2022-10-22T04:56:09;3.53;;;1.20;;
7571;SDS011;3827;49.928;8.548;2022-10-22T04:58:38;1.25;;;1.15;;
7571;SDS011;3827;49.928;8.548;2022-10-22T05:01:08;2.00;;;1.30;;
7571;SDS011;3827;49.928;8.548;2022-10-22T05:03:36;1.00;;;1.00;;
7571;SDS011;3827;49.928;8.548;2022-10-22T05:06:04;1.65;;;1.20;;
7571;SDS011;3827;49.928;8.548;2022-10-22T05:08:32;2.72;;;1.30;;
7571;SDS011;3827;49.928;8.548;2022-10-22T05:10:58;1.88;;;1.30;;
7571;SDS011;3827;49.928;8.548;2022-10-22T05:13:25;1.85;;;1.52;;
7571;SDS011;3827;49.928;8.548;2022-10-22T05:15:52;2.57;;;1.50;;
7571;SDS011;3827;49.928;8.548;2022-10-22T05:18:19;1.45;;;1.20;;
7571;SDS011;3827;49.928;8.548;2022-10-22T05:20:46;2.75;;;1.33;;
7571;SDS011;3827;49.928;8.548;2022-10-22T05:23:14;1.52;;;1.25;;
7571;SDS011;3827;49.928;8.548;2022-10-22T05:25:41;1.50;;;1.10;;
7571;SDS011;3827;49.928;8.548;2022-10-22T05:28:07;2.35;;;1.77;;
7571;SDS011;3827;49.928;8.548;2022-10-22T05:30:34;2.53;;;1.47;;
7571;SDS011;3827;49.928;8.548;2022-10-22T05:33:01;1.83;;;1.63;;
7571;SDS011;3827;49.928;8.548;2022-10-22T05:35:28;1.73;;;1.45;;
7571;SDS011;3827;49.928;8.548;2022-10-22T05:37:54;1.80;;;1.20;;
7571;SDS011;3827;49.928;8.548;2022-10-22T05:40:23;1.70;;;1.20;;
7571;SDS011;3827;49.928;8.548;2022-10-22T05:42:49;2.35;;;1.35;;
7571;SDS011;3827;49.928;8.548;2022-10-22T05:45:16;1.40;;;1.30;;
7571;SDS011;3827;49.928;8.548;2022-10-22T05:47:43;2.30;;;1.50;;
7571;SDS011;3827;49.928;8.548;2022-10-22T05:50:10;1.42;;;1.10;;
7571;SDS011;3827;49.928;8.548;2022-10-22T05:52:36;2.35;;;1.40;;
7571;SDS011;3827;49.928;8.548;2022-10-22T05:55:03;2.60;;;1.25;;
7571;SDS011;3827;49.928;8.548;2022-10-22T05:57:32;1.27;;;1.10;;
7571;SDS011;3827;49.928;8.548;2022-10-22T05:59:59;1.70;;;1.33;;
7571;SDS011;3827;49.928;8.548;2022-10-22T06:02:25;1.85;;;1.17;;
7571;SDS011;3827;49.928;8.548;2022-10-22T06:04:52;2.13;;;1.50;;
7571;SDS011;3827;49.928;8.548;2022-10-22T06:07:19;1.27;;;1.10;;
7571;SDS011;3827;49.928;8.548;2022-10-22T06:09:46;1.27;;;1.17;;
7571;SDS011;3827;49.928;8.548;2022-10-22T06:12:14;1.42;;;1.00;;
7571;SDS011;3827;49.928;8.548;2022-10-22T06:14:42;2.30;;;1.10;;
7571;SDS011;3827;49.928;8.548;2022-10-22T06:17:09;1.80;;;1.20;;
7571;SDS011;3827;49.928;8.548;2022-10-22T06:19:37;3.42;;;1.20;;
7571;SDS011;3827;49.928;8.548;2022-10-22T06:22:04;2.58;;;1.08;;
7571;SDS011;3827;49.928;8.548;2022-10-22T06:24:31;2.23;;;1.20;;
7571;SDS011;3827;49.928;8.548;2022-10-22T06:26:58;1.63;;;1.10;;
7571;SDS011;3827;49.928;8.548;2022-10-22T06:29:25;1.58;;;1.30;;
7571;SDS011;3827;49.928;8.548;2022-10-22T06:31:53;1.83;;;1.17;;
7571;SDS011;3827;49.928;8.548;2022-10-22T06:34:19;4.07;;;1.10;;
7571;SDS011;3827;49.928;8.548;2022-10-22T06:36:46;3.30;;;1.75;;
7571;SDS011;3827;49.928;8.548;2022-10-22T06:39:15;2.72;;;2.00;;
7571;SDS011;3827;49.928;8.548;2022-10-22T06:41:43;3.63;;;2.10;;
7571;SDS011;3827;49.928;8.548;2022-10-22T06:44:12;4.65;;;2.40;;
7571;SDS011;3827;49.928;8.548;2022-10-22T06:46:40;4.40;;;1.70;;
7571;SDS011;3827;49.928;8.548;2022-10-22T06:49:11;3.60;;;1.90;;
7571;SDS011;3827;49.928;8.548;2022-10-22T06:51:39;3.00;;;1.73;;
7571;SDS011;3827;49.928;8.548;2022-10-22T06:54:05;1.92;;;1.40;;
7571;SDS011;3827;49.928;8.548;2022-10-22T06:56:32;2.45;;;1.50;;
7571;SDS011;3827;49.928;8.548;2022-10-22T06:58:59;1.55;;;1.10;;
7571;SDS011;3827;49.928;8.548;2022-10-22T07:01:29;1.77;;;1.40;;
7571;SDS011;3827;49.928;8.548;2022-10-22T07:03:56;3.22;;;1.70;;
7571;SDS011;3827;49.928;8.548;2022-10-22T07:06:25;2.78;;;1.95;;
7571;SDS011;3827;49.928;8.548;2022-10-22T07:08:53;3.08;;;1.70;;
7571;SDS011;3827;49.928;8.548;2022-10-22T07:11:21;3.67;;;1.88;;
7571;SDS011;3827;49.928;8.548;2022-10-22T07:13:49;1.75;;;1.45;;
7571;SDS011;3827;49.928;8.548;2022-10-22T07:16:18;2.10;;;1.50;;
7571;SDS011;3827;49.928;8.548;2022-10-22T07:18:45;1.50;;;1.30;;
7571;SDS011;3827;49.928;8.548;2022-10-22T07:21:13;2.40;;;1.30;;
7571;SDS011;3827;49.928;8.548;2022-10-22T07:23:43;1.75;;;1.50;;
7571;SDS011;3827;49.928;8.548;2022-10-22T07:26:10;2.40;;;1.57;;
7571;SDS011;3827;49.928;8.548;2022-10-22T07:28:38;2.60;;;1.80;;
7571;SDS011;3827;49.928;8.548;2022-10-22T07:31:05;3.78;;;1.92;;
7571;SDS011;3827;49.928;8.548;2022-10-22T07:33:33;3.70;;;2.20;;
7571;SDS011;3827;49.928;8.548;2022-10-22T07:36:00;3.90;;;1.60;;
7571;SDS011;3827;49.928;8.548;2022-10-22T07:38:29;2.65;;;1.20;;
7571;SDS011;3827;49.928;8.548;2022-10-22T07:40:58;1.83;;;1.45;;
7571;SDS011;3827;49.928;8.548;2022-10-22T07:43:25;1.52;;;1.42;;
7571;SDS011;3827;49.928;8.548;2022-10-22T07:45:52;1.40;;;1.30;;
7571;SDS011;3827;49.928;8.548;2022-10-22T07:48:20;1.73;;;1.40;;
7571;SDS011;3827;49.928;8.548;2022-10-22T07:50:47;1.90;;;1.10;;
7571;SDS011;3827;49.928;8.548;2022-10-22T07:53:14;1.10;;;0.80;;
7571;SDS011;3827;49.928;8.548;2022-10-22T07:55:41;0.70;;;0.70;;
7571;SDS011;3827;49.928;8.548;2022-10-22T07:58:09;1.58;;;1.48;;
7571;SDS011;3827;49.928;8.548;2022-10-22T08:00:36;1.75;;;1.45;;
7571;SDS011;3827;49.928;8.548;2022-10-22T08:03:03;2.33;;;1.38;;
7571;SDS011;3827;49.928;8.548;2022-10-22T08:05:30;1.30;;;1.13;;
7571;SDS011;3827;49.928;8.548;2022-10-22T08:07:57;0.70;;;0.60;;
7571;SDS011;3827;49.928;8.548;2022-10-22T08:10:24;1.13;;;0.85;;
7571;SDS011;3827;49.928;8.548;2022-10-22T08:12:51;1.67;;;0.85;;
7571;SDS011;3827;49.928;8.548;2022-10-22T08:15:19;1.67;;;0.68;;
7571;SDS011;3827;49.928;8.548;2022-10-22T08:17:47;0.60;;;0.60;;
7571;SDS011;3827;49.928;8.548;2022-10-22T08:20:14;1.55;;;0.70;;
7571;SDS011;3827;49.928;8.548;2022-10-22T08:22:41;0.95;;;0.80;;
7571;SDS011;3827;49.928;8.548;2022-10-22T08:25:08;1.20;;;0.80;;
7571;SDS011;3827;49.928;8.548;2022-10-22T08:27:35;1.43;;;1.07;;
7571;SDS011;3827;49.928;8.548;2022-10-22T08:30:03;2.00;;;0.68;;
7571;SDS011;3827;49.928;8.548;2022-10-22T08:32:32;0.82;;;0.60;;
7571;SDS011;3827;49.928;8.548;2022-10-22T08:34:59;1.77;;;0.70;;
7571;SDS011;3827;49.928;8.548;2022-10-22T08:37:25;1.75;;;0.60;;
7571;SDS011;3827;49.928;8.548;2022-10-22T08:39:52;0.70;;;0.70;;
7571;SDS011;3827;49.928;8.548;2022-10-22T08:42:25;0.90;;;0.65;;
7571;SDS011;3827;49.928;8.548;2022-10-22T08:45:07;0.88;;;0.55;;
7571;SDS011;3827;49.928;8.548;2022-10-22T08:47:46;2.67;;;0.90;;
7571;SDS011;3827;49.928;8.548;2022-10-22T08:50:30;1.25;;;0.77;;
7571;SDS011;3827;49.928;8.548;2022-10-22T08:53:02;2.83;;;0.88;;
7571;SDS011;3827;49.928;8.548;2022-10-22T08:55:33;1.10;;;0.60;;
7571;SDS011;3827;49.928;8.548;2022-10-22T08:58:02;1.20;;;0.60;;
7571;SDS011;3827;49.928;8.548;2022-10-22T09:00:43;1.52;;;0.80;;
7571;SDS011;3827;49.928;8.548;2022-10-22T09:03:20;1.20;;;0.68;;
7571;SDS011;3827;49.928;8.548;2022-10-22T09:05:55;1.48;;;0.63;;
7571;SDS011;3827;49.928;8.548;2022-10-22T09:08:28;1.93;;;0.60;;
7571;SDS011;3827;49.928;8.548;2022-10-22T09:10:56;2.85;;;0.50;;
7571;SDS011;3827;49.928;8.548;2022-10-22T09:13:27;0.40;;;0.40;;
7571;SDS011;3827;49.928;8.548;2022-10-22T09:15:55;2.05;;;0.60;;
7571;SDS011;3827;49.928;8.548;2022-10-22T09:18:30;0.63;;;0.40;;
7571;SDS011;3827;49.928;8.548;2022-10-22T09:21:05;0.47;;;0.30;;
7571;SDS011;3827;49.928;8.548;2022-10-22T09:23:47;1.00;;;0.47;;
7571;SDS011;3827;49.928;8.548;2022-10-22T09:26:21;2.40;;;0.70;;
7571;SDS011;3827;49.928;8.548;2022-10-22T09:28:48;1.15;;;0.80;;
7571;SDS011;3827;49.928;8.548;2022-10-22T09:31:16;0.88;;;0.60;;
7571;SDS011;3827;49.928;8.548;2022-10-22T09:33:45;1.30;;;0.57;;
7571;SDS011;3827;49.928;8.548;2022-10-22T09:36:16;1.50;;;0.65;;
7571;SDS011;3827;49.928;8.548;2022-10-22T09:38:47;1.10;;;0.73;;
7571;SDS011;3827;49.928;8.548;2022-10-22T09:41:15;1.20;;;0.70;;
7571;SDS011;3827;49.928;8.548;2022-10-22T09:43:45;1.88;;;0.70;;
7571;SDS011;3827;49.928;8.548;2022-10-22T09:46:14;1.77;;;0.63;;
7571;SDS011;3827;49.928;8.548;2022-10-22T09:48:46;2.05;;;0.77;;
7571;SDS011;3827;49.928;8.548;2022-10-22T09:51:17;1.63;;;0.50;;
7571;SDS011;3827;49.928;8.548;2022-10-22T09:53:45;2.15;;;0.75;;
7571;SDS011;3827;49.928;8.548;2022-10-22T09:56:16;1.33;;;0.70;;
7571;SDS011;3827;49.928;8.548;2022-10-22T09:58:49;1.65;;;0.68;;
7571;SDS011;3827;49.928;8.548;2022-10-22T10:01:17;0.95;;;0.60;;
7571;SDS011;3827;49.928;8.548;2022-10-22T10:03:48;1.25;;;0.70;;
7571;SDS011;3827;49.928;8.548;2022-10-22T10:06:19;1.42;;;0.80;;
7571;SDS011;3827;49.928;8.548;2022-10-22T10:08:47;1.02;;;0.70;;
7571;SDS011;3827;49.928;8.548;2022-10-22T10:11:17;2.78;;;0.70;;
7571;SDS011;3827;49.928;8.548;2022-10-22T10:13:53;0.97;;;0.73;;
7571;SDS011;3827;49.928;8.548;2022-10-22T10:16:36;1.20;;;0.70;;
7571;SDS011;3827;49.928;8.548;2022-10-22T10:19:16;2.25;;;0.70;;
7571;SDS011;3827;49.928;8.548;2022-10-22T10:22:03;1.30;;;0.70;;
7571;SDS011;3827;49.928;8.548;2022-10-22T10:24:42;1.88;;;0.70;;
7571;SDS011;3827;49.928;8.548;2022-10-22T10:27:22;0.63;;;0.60;;
7571;SDS011;3827;49.928;8.548;2022-10-22T10:29:54;0.95;;;0.60;;
7571;SDS011;3827;49.928;8.548;2022-10-22T10:32:29;0.97;;;0.60;;
7571;SDS011;3827;49.928;8.548;2022-10-22T10:35:14;1.95;;;0.68;;
7571;SDS011;3827;49.928;8.548;2022-10-22T10:37:49;1.58;;;0.88;;
7571;SDS011;3827;49.928;8.548;2022-10-22T10:40:31;2.00;;;0.70;;
7571;SDS011;3827;49.928;8.548;2022-10-22T10:43:06;1.07;;;0.70;;
7571;SDS011;3827;49.928;8.548;2022-10-22T10:45:40;2.40;;;1.33;;
7571;SDS011;3827;49.928;8.548;2022-10-22T10:51:20;2.33;;;0.77;;
7571;SDS011;3827;49.928;8.548;2022-10-22T10:53:59;2.13;;;0.60;;
7571;SDS011;3827;49.928;8.548;2022-10-22T10:56:35;1.80;;;0.80;;
7571;SDS011;3827;49.928;8.548;2022-10-22T11:02:10;2.35;;;0.93;;
7571;SDS011;3827;49.928;8.548;2022-10-22T11:04:55;1.55;;;0.80;;
7571;SDS011;3827;49.928;8.548;2022-10-22T11:07:38;1.20;;;0.80;;
7571;SDS011;3827;49.928;8.548;2022-10-22T11:10:09;2.25;;;1.00;;
7571;SDS011;3827;49.928;8.548;2022-10-22T11:12:44;1.50;;;0.80;;
7571;SDS011;3827;49.928;8.548;2022-10-22T11:15:18;4.78;;;1.10;;
7571;SDS011;3827;49.928;8.548;2022-10-22T11:17:50;1.50;;;0.82;;
7571;SDS011;3827;49.928;8.548;2022-10-22T11:20:21;1.25;;;1.00;;
7571;SDS011;3827;49.928;8.548;2022-10-22T11:22:56;2.58;;;1.02;;
7571;SDS011;3827;49.928;8.548;2022-10-22T11:25:30;2.20;;;0.90;;
7571;SDS011;3827;49.928;8.548;2022-10-22T11:28:06;1.27;;;0.80;;
7571;SDS011;3827;49.928;8.548;2022-10-22T11:30:37;1.13;;;0.90;;
7571;SDS011;3827;49.928;8.548;2022-10-22T11:33:09;0.98;;;0.70;;
7571;SDS011;3827;49.928;8.548;2022-10-22T11:35:40;2.53;;;0.90;;
7571;SDS011;3827;49.928;8.548;2022-10-22T11:38:12;1.60;;;0.87;;
7571;SDS011;3827;49.928;8.548;2022-10-22T11:40:43;2.55;;;0.70;;
7571;SDS011;3827;49.928;8.548;2022-10-22T11:43:25;1.35;;;0.65;;
7571;SDS011;3827;49.928;8.548;2022-10-22T11:46:07;1.55;;;0.90;;
7571;SDS011;3827;49.928;8.548;2022-10-22T11:48:59;2.00;;;0.83;;
7571;SDS011;3827;49.928;8.548;2022-10-22T11:51:31;4.75;;;0.90;;
7571;SDS011;3827;49.928;8.548;2022-10-22T11:54:02;2.63;;;0.90;;
7571;SDS011;3827;49.928;8.548;2022-10-22T11:56:51;1.33;;;0.70;;
7571;SDS011;3827;49.928;8.548;2022-10-22T11:59:38;2.53;;;0.90;;
7571;SDS011;3827;49.928;8.548;2022-10-22T12:02:21;1.60;;;0.77;;
7571;SDS011;3827;49.928;8.548;2022-10-22T12:04:49;2.55;;;0.88;;
7571;SDS011;3827;49.928;8.548;2022-10-22T12:07:33;1.60;;;0.88;;
7571;SDS011;3827;49.928;8.548;2022-10-22T12:10:15;3.67;;;1.10;;
7571;SDS011;3827;49.928;8.548;2022-10-22T12:12:44;2.20;;;0.90;;
7571;SDS011;3827;49.928;8.548;2022-10-22T12:15:22;2.60;;;1.02;;
7571;SDS011;3827;49.928;8.548;2022-10-22T12:17:55;1.58;;;0.80;;
7571;SDS011;3827;49.928;8.548;2022-10-22T12:20:24;2.23;;;1.00;;
7571;SDS011;3827;49.928;8.548;2022-10-22T12:22:52;2.90;;;0.90;;
7571;SDS011;3827;49.928;8.548;2022-10-22T12:25:24;2.03;;;0.85;;
7571;SDS011;3827;49.928;8.548;2022-10-22T12:27:55;2.15;;;0.85;;
7571;SDS011;3827;49.928;8.548;2022-10-22T12:30:23;2.88;;;0.80;;
7571;SDS011;3827;49.928;8.548;2022-10-22T12:32:52;1.50;;;0.90;;
7571;SDS011;3827;49.928;8.548;2022-10-22T12:35:22;0.80;;;0.60;;
7571;SDS011;3827;49.928;8.548;2022-10-22T12:37:50;2.45;;;0.90;;
7571;SDS011;3827;49.928;8.548;2022-10-22T12:40:20;2.30;;;0.80;;
7571;SDS011;3827;49.928;8.548;2022-10-22T12:42:51;2.55;;;0.85;;
7571;SDS011;3827;49.928;8.548;2022-10-22T12:45:19;3.83;;;1.08;;
7571;SDS011;3827;49.928;8.548;2022-10-22T12:47:47;2.30;;;0.93;;
7571;SDS011;3827;49.928;8.548;2022-10-22T12:50:16;2.33;;;0.80;;
7571;SDS011;3827;49.928;8.548;2022-10-22T12:52:45;3.28;;;0.80;;
7571;SDS011;3827;49.928;8.548;2022-10-22T12:55:16;3.13;;;0.88;;
7571;SDS011;3827;49.928;8.548;2022-10-22T12:57:46;3.13;;;1.23;;
7571;SDS011;3827;49.928;8.548;2022-10-22T13:00:20;3.65;;;1.20;;
7571;SDS011;3827;49.928;8.548;2022-10-22T13:02:50;3.53;;;0.93;;
7571;SDS011;3827;49.928;8.548;2022-10-22T13:05:22;3.78;;;0.98;;
7571;SDS011;3827;49.928;8.548;2022-10-22T13:07:52;1.85;;;0.90;;
7571;SDS011;3827;49.928;8.548;2022-10-22T13:10:30;3.75;;;1.23;;
7571;SDS011;3827;49.928;8.548;2022-10-22T13:13:00;2.40;;;1.00;;
7571;SDS011;3827;49.928;8.548;2022-10-22T13:15:31;2.47;;;1.10;;
7571;SDS011;3827;49.928;8.548;2022-10-22T13:18:01;3.40;;;0.90;;
7571;SDS011;3827;49.928;8.548;2022-10-22T13:20:29;3.30;;;1.17;;
7571;SDS011;3827;49.928;8.548;2022-10-22T13:22:56;2.30;;;1.00;;
7571;SDS011;3827;49.928;8.548;2022-10-22T13:25:25;1.83;;;0.77;;
7571;SDS011;3827;49.928;8.548;2022-10-22T13:27:54;2.05;;;0.80;;
7571;SDS011;3827;49.928;8.548;2022-10-22T13:30:25;2.05;;;0.90;;
7571;SDS011;3827;49.928;8.548;2022-10-22T13:32:53;6.63;;;1.30;;
7571;SDS011;3827;49.928;8.548;2022-10-22T13:35:23;4.38;;;1.10;;
7571;SDS011;3827;49.928;8.548;2022-10-22T13:37:52;2.80;;;0.80;;
7571;SDS011;3827;49.928;8.548;2022-10-22T13:40:19;2.55;;;0.88;;
7571;SDS011;3827;49.928;8.548;2022-10-22T13:42:46;4.32;;;0.98;;
7571;SDS011;3827;49.928;8.548;2022-10-22T13:45:13;3.35;;;1.00;;
7571;SDS011;3827;49.928;8.548;2022-10-22T13:47:42;2.33;;;1.00;;
7571;SDS011;3827;49.928;8.548;2022-10-22T13:50:13;5.70;;;1.02;;
7571;SDS011;3827;49.928;8.548;2022-10-22T13:52:43;4.38;;;0.85;;
7571;SDS011;3827;49.928;8.548;2022-10-22T13:55:13;3.97;;;0.90;;
7571;SDS011;3827;49.928;8.548;2022-10-22T13:57:42;3.08;;;0.90;;
7571;SDS011;3827;49.928;8.548;2022-10-22T14:00:13;2.57;;;0.97;;
7571;SDS011;3827;49.928;8.548;2022-10-22T14:02:43;1.98;;;1.00;;
7571;SDS011;3827;49.928;8.548;2022-10-22T14:05:12;2.22;;;0.80;;
7571;SDS011;3827;49.928;8.548;2022-10-22T14:07:41;2.33;;;1.05;;
7571;SDS011;3827;49.928;8.548;2022-10-22T14:10:15;2.85;;;0.90;;
7571;SDS011;3827;49.928;8.548;2022-10-22T14:12:43;3.90;;;1.00;;
7571;SDS011;3827;49.928;8.548;2022-10-22T14:15:11;1.55;;;0.70;;
7571;SDS011;3827;49.928;8.548;2022-10-22T14:17:40;2.50;;;1.00;;
7571;SDS011;3827;49.928;8.548;2022-10-22T14:20:13;2.25;;;0.95;;
7571;SDS011;3827;49.928;8.548;2022-10-22T14:22:43;2.33;;;0.88;;
7571;SDS011;3827;49.928;8.548;2022-10-22T14:25:11;4.00;;;1.08;;
7571;SDS011;3827;49.928;8.548;2022-10-22T14:27:40;2.22;;;0.95;;
7571;SDS011;3827;49.928;8.548;2022-10-22T14:30:07;4.82;;;1.38;;
7571;SDS011;3827;49.928;8.548;2022-10-22T14:32:34;1.75;;;1.00;;
7571;SDS011;3827;49.928;8.548;2022-10-22T14:35:01;2.50;;;0.80;;
7571;SDS011;3827;49.928;8.548;2022-10-22T14:37:30;3.95;;;1.10;;
7571;SDS011;3827;49.928;8.548;2022-10-22T14:39:57;2.65;;;1.00;;
7571;SDS011;3827;49.928;8.548;2022-10-22T14:42:26;4.18;;;1.10;;
7571;SDS011;3827;49.928;8.548;2022-10-22T14:44:53;5.20;;;1.10;;
7571;SDS011;3827;49.928;8.548;2022-10-22T14:47:20;5.18;;;1.00;;
7571;SDS011;3827;49.928;8.548;2022-10-22T14:49:47;4.72;;;1.00;;
7571;SDS011;3827;49.928;8.548;2022-10-22T14:52:14;3.17;;;0.90;;
7571;SDS011;3827;49.928;8.548;2022-10-22T14:54:42;3.35;;;1.20;;
7571;SDS011;3827;49.928;8.548;2022-10-22T14:57:09;3.72;;;1.20;;
7571;SDS011;3827;49.928;8.548;2022-10-22T14:59:38;3.90;;;1.20;;
7571;SDS011;3827;49.928;8.548;2022-10-22T15:02:05;2.90;;;1.30;;
7571;SDS011;3827;49.928;8.548;2022-10-22T15:04:34;2.33;;;1.20;;
7571;SDS011;3827;49.928;8.548;2022-10-22T15:07:01;2.90;;;0.90;;
7571;SDS011;3827;49.928;8.548;2022-10-22T15:09:28;2.95;;;1.10;;
7571;SDS011;3827;49.928;8.548;2022-10-22T15:11:56;2.47;;;1.05;;
7571;SDS011;3827;49.928;8.548;2022-10-22T15:14:23;2.03;;;1.00;;
7571;SDS011;3827;49.928;8.548;2022-10-22T15:16:50;2.97;;;1.13;;
7571;SDS011;3827;49.928;8.548;2022-10-22T15:19:17;2.88;;;1.10;;
7571;SDS011;3827;49.928;8.548;2022-10-22T15:21:44;1.75;;;1.00;;
7571;SDS011;3827;49.928;8.548;2022-10-22T15:24:11;2.55;;;1.17;;
7571;SDS011;3827;49.928;8.548;2022-10-22T15:26:38;3.05;;;1.13;;
7571;SDS011;3827;49.928;8.548;2022-10-22T15:29:07;2.67;;;1.25;;
7571;SDS011;3827;49.928;8.548;2022-10-22T15:31:40;2.10;;;1.20;;
7571;SDS011;3827;49.928;8.548;2022-10-22T15:34:09;3.20;;;1.27;;
7571;SDS011;3827;49.928;8.548;2022-10-22T15:36:36;2.58;;;1.20;;
7571;SDS011;3827;49.928;8.548;2022-10-22T15:39:05;3.17;;;1.40;;
7571;SDS011;3827;49.928;8.548;2022-10-22T15:41:33;3.97;;;1.37;;